Time;durP1;ratioP1;P1;durP2;ratioP2;P2;SDS_P1;SDS_P2;PMS_P1;PMS_P2;Temp;Humidity;BMP_temperature;BMP_pressure;BME280_temperature;BME280_humidity;BME280_pressure;Samples;Min_cycle;Max_cycle;Signal;HPM_P1;HPM_P2
2023/12/05 00:00:07;;;;;;;21.42;17.70;;;;;;;2.29;100.00;99771.50;5043200;28;20041;-59
2023/12/05 00:02:32;;;;;;;19.65;16.95;;;;;;;2.34;100.00;99769.44;5048013;28;20154;-61
2023/12/05 00:04:58;;;;;;;22.25;17.73;;;;;;;2.39;100.00;99770.00;5042144;28;20119;-60
2023/12/05 00:07:25;;;;;;;21.85;18.33;;;;;;;2.41;100.00;99769.91;5043785;28;20031;-61
2023/12/05 00:09:50;;;;;;;20.55;17.42;;;;;;;2.44;100.00;99767.13;5045983;28;20029;-61
2023/12/05 00:12:15;;;;;;;21.08;17.73;;;;;;;2.48;100.00;99766.03;5045143;28;20032;-61
2023/12/05 00:14:41;;;;;;;20.70;17.23;;;;;;;2.51;100.00;99764.97;5041548;28;20111;-60
2023/12/05 00:17:06;;;;;;;18.88;16.83;;;;;;;2.54;100.00;99767.41;5040651;28;20035;-61
2023/12/05 00:19:32;;;;;;;22.00;17.10;;;;;;;2.57;100.00;99767.22;5045314;28;20024;-61
2023/12/05 00:21:57;;;;;;;21.40;17.48;;;;;;;2.56;100.00;99769.00;5039533;28;20025;-60
2023/12/05 00:24:22;;;;;;;19.58;17.33;;;;;;;2.58;100.00;99761.91;5043737;28;20032;-60
2023/12/05 00:26:48;;;;;;;20.13;18.02;;;;;;;2.63;100.00;99760.75;5040768;28;20025;-60
2023/12/05 00:29:13;;;;;;;20.13;17.35;;;;;;;2.63;100.00;99761.63;5043926;28;20021;-60
2023/12/05 00:31:38;;;;;;;21.10;17.33;;;;;;;2.65;100.00;99764.13;5039590;28;20459;-61
2023/12/05 00:34:03;;;;;;;20.92;18.45;;;;;;;2.65;100.00;99762.38;5044875;28;20032;-60
2023/12/05 00:36:29;;;;;;;20.15;17.60;;;;;;;2.65;100.00;99757.13;5041902;28;20385;-60
2023/12/05 00:38:54;;;;;;;19.83;17.60;;;;;;;2.67;100.00;99763.09;5037610;28;20032;-60
2023/12/05 00:41:19;;;;;;;18.65;16.60;;;;;;;2.67;100.00;99759.66;5046168;28;20024;-60
2023/12/05 00:43:45;;;;;;;20.27;18.08;;;;;;;2.69;100.00;99758.59;5039786;28;20037;-60
2023/12/05 00:46:10;;;;;;;19.95;17.08;;;;;;;2.70;100.00;99752.44;5047051;28;20064;-59
2023/12/05 00:48:35;;;;;;;20.75;17.42;;;;;;;2.73;100.00;99756.63;5043256;28;20525;-60
2023/12/05 00:51:00;;;;;;;19.92;17.83;;;;;;;2.73;100.00;99748.78;5045112;28;20325;-60
2023/12/05 00:53:26;;;;;;;20.70;17.95;;;;;;;2.73;100.00;99748.78;5043440;28;20029;-60
2023/12/05 00:55:51;;;;;;;21.67;18.65;;;;;;;2.75;100.00;99752.16;5042823;28;20021;-60
2023/12/05 00:58:16;;;;;;;18.65;16.60;;;;;;;2.76;100.00;99752.06;5039513;28;20052;-60
2023/12/05 01:00:41;;;;;;;20.38;18.10;;;;;;;2.75;100.00;99750.38;5045525;28;20114;-60
2023/12/05 01:03:07;;;;;;;20.98;18.20;;;;;;;2.75;100.00;99753.00;5048485;28;20021;-60
2023/12/05 01:05:34;;;;;;;21.08;17.73;;;;;;;2.71;100.00;99754.09;5040746;28;20144;-59
2023/12/05 01:07:59;;;;;;;24.42;18.30;;;;;;;2.68;100.00;99750.84;5044834;28;20055;-60
2023/12/05 01:10:24;;;;;;;20.98;18.27;;;;;;;2.68;100.00;99751.69;5045803;28;20076;-60
2023/12/05 01:12:49;;;;;;;21.42;18.90;;;;;;;2.66;100.00;99755.34;5045225;28;20025;-60
2023/12/05 01:15:15;;;;;;;22.38;18.83;;;;;;;2.64;100.00;99755.44;5043647;28;20021;-60
2023/12/05 01:17:40;;;;;;;21.40;19.08;;;;;;;2.63;100.00;99745.91;5049314;28;20458;-60
2023/12/05 01:20:11;;;;;;;22.02;18.70;;;;;;;2.61;100.00;99745.13;5041808;28;20033;-60
2023/12/05 01:22:36;;;;;;;22.60;18.65;;;;;;;2.58;100.00;99740.06;5045900;28;20119;-60
2023/12/05 01:25:02;;;;;;;21.70;19.35;;;;;;;2.56;100.00;99737.53;5050598;28;20104;-60
2023/12/05 01:27:28;;;;;;;22.55;19.95;;;;;;;2.55;100.00;99738.50;5049344;28;20025;-60
2023/12/05 01:29:54;;;;;;;22.73;19.63;;;;;;;2.55;100.00;99737.66;5044830;28;20022;-60
2023/12/05 01:32:19;;;;;;;24.23;19.60;;;;;;;2.54;100.00;99746.44;5045655;28;20383;-60
2023/12/05 01:34:44;;;;;;;22.08;19.63;;;;;;;2.53;100.00;99739.50;5044467;28;20028;-60
2023/12/05 01:37:09;;;;;;;23.67;20.00;;;;;;;2.51;100.00;99738.75;5044351;28;20124;-60
2023/12/05 01:39:34;;;;;;;23.38;19.45;;;;;;;2.50;100.00;99739.69;5043513;28;20368;-60
2023/12/05 01:42:00;;;;;;;22.20;19.80;;;;;;;2.49;100.00;99736.22;5044861;28;20026;-60
2023/12/05 01:44:25;;;;;;;23.25;19.52;;;;;;;2.49;100.00;99738.03;5045079;28;20028;-59
2023/12/05 01:46:51;;;;;;;23.58;19.92;;;;;;;2.48;100.00;99736.31;5041669;28;20025;-58
2023/12/05 01:49:17;;;;;;;22.95;19.80;;;;;;;2.47;100.00;99739.91;5036811;28;20029;-59
2023/12/05 01:51:43;;;;;;;25.42;20.33;;;;;;;2.48;100.00;99738.94;5041885;28;20032;-59
2023/12/05 01:54:08;;;;;;;23.42;20.20;;;;;;;2.46;100.00;99743.44;5044206;28;20017;-60
2023/12/05 01:56:34;;;;;;;25.52;21.45;;;;;;;2.45;100.00;99742.63;5044193;28;20091;-59
2023/12/05 01:59:00;;;;;;;24.52;20.05;;;;;;;2.46;100.00;99743.44;5045548;28;20053;-60
2023/12/05 02:01:25;;;;;;;25.17;20.30;;;;;;;2.45;100.00;99745.22;5048133;28;20017;-60
2023/12/05 02:03:51;;;;;;;23.17;20.15;;;;;;;2.45;100.00;99747.84;5048100;28;20108;-58
2023/12/05 02:06:18;;;;;;;24.20;20.88;;;;;;;2.45;100.00;99753.09;5047161;28;20025;-59
2023/12/05 02:08:45;;;;;;;25.55;21.67;;;;;;;2.45;100.00;99752.22;5045633;28;20111;-60
2023/12/05 02:11:11;;;;;;;25.92;21.25;;;;;;;2.43;100.00;99749.69;5047102;28;20059;-60
2023/12/05 02:13:37;;;;;;;25.70;21.25;;;;;;;2.44;100.00;99755.81;5050442;28;20025;-60
2023/12/05 02:16:29;;;;;;;25.23;21.65;;;;;;;2.46;100.00;99752.13;5045295;28;20029;-60
2023/12/05 02:19:33;;;;;;;23.05;19.55;;;;;;;2.48;100.00;99745.06;5047300;28;20547;-60
2023/12/05 02:22:01;;;;;;;24.60;20.92;;;;;;;2.47;100.00;99750.38;5044001;28;20115;-60
2023/12/05 02:25:01;;;;;;;28.73;21.65;;;;;;;2.50;100.00;99747.56;5045781;28;20132;-60
2023/12/05 02:27:41;;;;;;;26.92;22.25;;;;;;;2.48;100.00;99752.06;5047394;28;20095;-60
2023/12/05 02:30:09;;;;;;;25.10;21.33;;;;;;;2.48;100.00;99750.28;5045721;28;20044;-60
2023/12/05 02:32:34;;;;;;;25.95;22.13;;;;;;;2.48;100.00;99744.19;5047468;28;20025;-59
2023/12/05 02:35:00;;;;;;;28.02;22.38;;;;;;;2.49;100.00;99753.75;5045703;28;20025;-60
2023/12/05 02:37:34;;;;;;;29.00;23.17;;;;;;;2.49;100.00;99753.75;5042394;28;20112;-60
2023/12/05 02:40:10;;;;;;;26.83;23.08;;;;;;;2.49;100.00;99751.13;5048198;28;20377;-60
2023/12/05 02:42:37;;;;;;;26.42;23.42;;;;;;;2.49;100.00;99748.50;5043218;28;20033;-60
2023/12/05 02:45:06;;;;;;;27.33;23.80;;;;;;;2.49;100.00;99746.72;5051795;28;20074;-60
2023/12/05 02:47:33;;;;;;;27.27;22.80;;;;;;;2.50;100.00;99745.78;5046716;28;20107;-60
2023/12/05 02:49:58;;;;;;;26.70;23.08;;;;;;;2.50;100.00;99743.16;5044467;28;20029;-60
2023/12/05 02:52:23;;;;;;;29.35;23.38;;;;;;;2.51;100.00;99736.13;5045666;28;20108;-60
2023/12/05 02:54:48;;;;;;;27.02;23.20;;;;;;;2.51;100.00;99741.38;5045529;28;20029;-60
2023/12/05 02:57:14;;;;;;;27.38;23.85;;;;;;;2.51;100.00;99742.22;5046426;28;20102;-60
2023/12/05 02:59:39;;;;;;;26.88;23.02;;;;;;;2.52;100.00;99737.84;5047042;28;20100;-60
2023/12/05 03:02:05;;;;;;;28.25;23.85;;;;;;;2.53;100.00;99736.88;5044968;28;20055;-60
2023/12/05 03:04:30;;;;;;;27.98;24.08;;;;;;;2.52;100.00;99736.06;5044112;28;20454;-60
2023/12/05 03:06:55;;;;;;;26.63;23.65;;;;;;;2.55;100.00;99732.41;5047300;28;20028;-60
2023/12/05 03:09:21;;;;;;;27.13;23.77;;;;;;;2.54;100.00;99726.31;5049876;28;20622;-60
2023/12/05 03:11:46;;;;;;;28.02;24.13;;;;;;;2.56;100.00;99723.59;5039448;28;20106;-59
2023/12/05 03:14:15;;;;;;;27.45;23.88;;;;;;;2.55;100.00;99729.78;5046623;28;20017;-60
2023/12/05 03:16:42;;;;;;;29.60;24.27;;;;;;;2.55;100.00;99728.00;5044020;28;20040;-60
2023/12/05 03:19:07;;;;;;;28.13;24.15;;;;;;;2.57;100.00;99728.75;5048894;28;20033;-60
2023/12/05 03:21:32;;;;;;;30.50;23.85;;;;;;;2.58;100.00;99726.97;5046292;28;20378;-60
2023/12/05 03:23:58;;;;;;;28.05;24.50;;;;;;;2.59;100.00;99731.28;5046379;28;20029;-60
2023/12/05 03:26:23;;;;;;;27.85;24.23;;;;;;;2.61;100.00;99721.53;5042866;28;20035;-60
2023/12/05 03:28:49;;;;;;;29.20;25.08;;;;;;;2.61;100.00;99728.56;5044248;28;20029;-60
2023/12/05 03:31:15;;;;;;;29.80;25.27;;;;;;;2.61;100.00;99731.19;5044056;28;20110;-59
2023/12/05 03:33:41;;;;;;;29.05;25.17;;;;;;;2.61;100.00;99726.78;5048048;28;20430;-60
2023/12/05 03:36:07;;;;;;;29.75;25.40;;;;;;;2.62;100.00;99733.72;5044098;28;20047;-60
2023/12/05 03:38:32;;;;;;;28.73;24.70;;;;;;;2.63;100.00;99732.78;5047560;28;20089;-59
2023/12/05 03:40:57;;;;;;;28.95;25.15;;;;;;;2.64;100.00;99742.31;5042268;28;20051;-60
2023/12/05 03:43:23;;;;;;;32.58;24.83;;;;;;;2.65;100.00;99737.91;5047217;28;20036;-60
2023/12/05 03:45:48;;;;;;;29.42;25.55;;;;;;;2.65;100.00;99741.41;5045515;28;20056;-60
2023/12/05 03:48:14;;;;;;;29.08;24.55;;;;;;;2.66;100.00;99743.06;5046829;28;20029;-61
2023/12/05 03:50:39;;;;;;;29.38;25.42;;;;;;;2.67;100.00;99738.69;5045155;28;20025;-60
2023/12/05 03:53:04;;;;;;;32.72;26.05;;;;;;;2.69;100.00;99745.50;5050189;28;20021;-61
2023/12/05 03:55:34;;;;;;;30.17;26.55;;;;;;;2.69;100.00;99747.28;5046279;28;20029;-61
2023/12/05 03:57:59;;;;;;;33.17;27.33;;;;;;;2.69;100.00;99749.91;5044384;28;20073;-60
2023/12/05 04:00:25;;;;;;;30.38;26.42;;;;;;;2.70;100.00;99749.81;5047428;28;20063;-60
2023/12/05 04:02:50;;;;;;;31.38;27.98;;;;;;;2.72;100.00;99754.97;5045431;28;20060;-60
2023/12/05 04:05:16;;;;;;;29.80;25.67;;;;;;;2.72;100.00;99758.44;5045298;28;20470;-60
2023/12/05 04:07:41;;;;;;;31.00;27.52;;;;;;;2.73;100.00;99757.50;5045800;28;20025;-60
2023/12/05 04:10:08;;;;;;;30.95;26.50;;;;;;;2.75;100.00;99758.25;5046387;28;20020;-60
2023/12/05 04:12:34;;;;;;;32.00;27.25;;;;;;;2.76;100.00;99761.69;5049498;28;20079;-60
2023/12/05 04:14:59;;;;;;;30.63;27.05;;;;;;;2.77;100.00;99760.78;5047607;28;20024;-60
2023/12/05 04:17:24;;;;;;;32.08;27.25;;;;;;;2.78;100.00;99771.16;5042980;28;20068;-60
2023/12/05 04:19:49;;;;;;;30.98;26.65;;;;;;;2.79;100.00;99764.13;5049071;28;20025;-60
2023/12/05 04:22:15;;;;;;;31.60;26.52;;;;;;;2.80;100.00;99762.34;5049186;28;20229;-60
2023/12/05 04:24:40;;;;;;;30.90;26.73;;;;;;;2.80;100.00;99768.44;5045874;28;20096;-60
2023/12/05 04:27:05;;;;;;;31.80;27.25;;;;;;;2.81;100.00;99771.91;5049444;28;20036;-60
2023/12/05 04:29:31;;;;;;;31.70;27.75;;;;;;;2.81;100.00;99770.13;5044178;28;20060;-60
2023/12/05 04:31:58;;;;;;;30.50;26.58;;;;;;;2.82;100.00;99776.22;5042036;28;20031;-60
2023/12/05 04:34:23;;;;;;;32.25;27.63;;;;;;;2.82;100.00;99773.59;5044995;28;20033;-60
2023/12/05 04:36:50;;;;;;;31.90;27.70;;;;;;;2.83;100.00;99770.03;5049141;28;20082;-59
2023/12/05 04:39:16;;;;;;;31.63;27.65;;;;;;;2.83;100.00;99773.50;5046102;28;20063;-60
2023/12/05 04:41:41;;;;;;;32.83;27.92;;;;;;;2.83;100.00;99778.75;5044861;28;20053;-60
2023/12/05 04:44:06;;;;;;;31.90;27.38;;;;;;;2.86;100.00;99777.72;5044881;28;20045;-61
2023/12/05 04:46:31;;;;;;;31.55;27.38;;;;;;;2.86;100.00;99788.19;5045294;28;20501;-60
2023/12/05 04:48:57;;;;;;;31.17;27.50;;;;;;;2.88;100.00;99778.44;5047540;28;20052;-60
2023/12/05 04:51:22;;;;;;;32.35;28.25;;;;;;;2.88;100.00;99786.31;5044954;28;20033;-60
2023/12/05 04:53:47;;;;;;;33.72;28.92;;;;;;;2.89;100.00;99788.00;5046404;28;20029;-60
2023/12/05 04:56:12;;;;;;;32.10;27.23;;;;;;;2.90;100.00;99794.97;5048098;28;20029;-60
2023/12/05 04:58:38;;;;;;;33.17;27.95;;;;;;;2.92;100.00;99793.06;5047826;28;20057;-60
2023/12/05 05:01:03;;;;;;;33.80;28.25;;;;;;;2.94;100.00;99799.06;5043726;28;20116;-60
2023/12/05 05:03:29;;;;;;;32.38;27.25;;;;;;;2.96;100.00;99795.41;5047764;28;20021;-60
2023/12/05 05:05:54;;;;;;;29.77;26.58;;;;;;;2.99;100.00;99801.41;5044596;28;20036;-60
2023/12/05 05:08:19;;;;;;;30.60;26.45;;;;;;;3.02;100.00;99801.22;5048165;28;20025;-59
2023/12/05 05:10:44;;;;;;;29.50;25.85;;;;;;;3.06;100.00;99802.69;5045541;28;20600;-60
2023/12/05 05:13:10;;;;;;;28.98;25.88;;;;;;;3.09;100.00;99799.91;5044689;28;20041;-60
2023/12/05 05:15:35;;;;;;;30.20;26.45;;;;;;;3.10;100.00;99796.34;5046765;28;20021;-60
2023/12/05 05:18:00;;;;;;;29.48;26.27;;;;;;;3.14;100.00;99803.91;5041795;28;20033;-60
2023/12/05 05:20:25;;;;;;;29.42;26.05;;;;;;;3.17;100.00;99802.06;5049385;28;20466;-60
2023/12/05 05:22:51;;;;;;;31.30;26.02;;;;;;;3.21;100.00;99806.16;5049044;28;20379;-61
2023/12/05 05:25:16;;;;;;;27.30;24.38;;;;;;;3.24;100.00;99805.97;5047228;28;20057;-60
2023/12/05 05:27:42;;;;;;;32.45;27.10;;;;;;;3.27;100.00;99811.03;5044313;28;20029;-60
2023/12/05 05:30:09;;;;;;;28.58;24.50;;;;;;;3.29;100.00;99811.75;5048626;28;20470;-60
2023/12/05 05:32:36;;;;;;;29.77;25.83;;;;;;;3.30;100.00;99814.28;5046573;28;20462;-59
2023/12/05 05:35:02;;;;;;;28.73;25.42;;;;;;;3.32;100.00;99811.56;5047896;28;20535;-60
2023/12/05 05:37:27;;;;;;;28.52;24.92;;;;;;;3.34;100.00;99815.78;5052043;28;20029;-60
2023/12/05 05:39:53;;;;;;;27.83;24.65;;;;;;;3.38;100.00;99812.97;5050426;28;20079;-60
2023/12/05 05:42:19;;;;;;;28.75;24.75;;;;;;;3.39;100.00;99812.03;5049555;28;20452;-60
2023/12/05 05:44:44;;;;;;;28.15;25.05;;;;;;;3.40;100.00;99814.56;5049997;28;20446;-60
2023/12/05 05:47:09;;;;;;;27.48;24.45;;;;;;;3.42;100.00;99817.09;5049485;28;20538;-60
2023/12/05 05:49:35;;;;;;;28.08;23.40;;;;;;;3.44;100.00;99817.81;5046039;28;20027;-61
2023/12/05 05:52:00;;;;;;;28.58;25.35;;;;;;;3.45;100.00;99814.28;5048346;28;20512;-60
2023/12/05 05:54:25;;;;;;;27.75;24.67;;;;;;;3.47;100.00;99817.63;5047060;28;20453;-61
2023/12/05 05:56:50;;;;;;;28.65;24.52;;;;;;;3.48;100.00;99821.94;5050199;28;20025;-60
2023/12/05 05:59:16;;;;;;;28.55;25.27;;;;;;;3.47;100.00;99818.47;5051262;28;20063;-60
2023/12/05 06:01:41;;;;;;;30.15;25.00;;;;;;;3.47;100.00;99821.09;5050568;28;20029;-60
2023/12/05 06:04:06;;;;;;;27.90;24.30;;;;;;;3.48;100.00;99821.94;5049559;28;20047;-60
2023/12/05 06:06:32;;;;;;;29.48;25.95;;;;;;;3.47;100.00;99815.00;5049738;28;20017;-61
2023/12/05 06:08:57;;;;;;;27.88;24.85;;;;;;;3.48;100.00;99824.56;5050563;28;20025;-60
2023/12/05 06:11:22;;;;;;;27.45;24.05;;;;;;;3.48;100.00;99830.66;5046847;28;20422;-61
2023/12/05 06:13:47;;;;;;;27.08;24.15;;;;;;;3.48;100.00;99829.81;5048802;28;20050;-60
2023/12/05 06:16:13;;;;;;;27.92;23.98;;;;;;;3.48;100.00;99824.56;5047952;28;20386;-60
2023/12/05 06:18:38;;;;;;;28.35;24.40;;;;;;;3.49;100.00;99826.25;5046119;28;20029;-60
2023/12/05 06:21:03;;;;;;;27.23;23.75;;;;;;;3.50;100.00;99828.78;5047397;28;20493;-61
2023/12/05 06:23:29;;;;;;;27.38;24.38;;;;;;;3.53;100.00;99835.63;5044357;28;20044;-60
2023/12/05 06:25:55;;;;;;;27.10;23.60;;;;;;;3.53;100.00;99840.88;5041136;28;20117;-61
2023/12/05 06:28:20;;;;;;;28.40;24.92;;;;;;;3.54;100.00;99839.09;5046670;28;20029;-60
2023/12/05 06:30:45;;;;;;;28.35;23.52;;;;;;;3.55;100.00;99851.25;5044968;28;20022;-60
2023/12/05 06:33:10;;;;;;;27.05;23.58;;;;;;;3.54;100.00;99846.97;5048101;28;20032;-60
2023/12/05 06:35:36;;;;;;;28.38;24.23;;;;;;;3.56;100.00;99852.97;5046095;28;20038;-60
2023/12/05 06:38:01;;;;;;;26.02;23.13;;;;;;;3.57;100.00;99859.91;5045645;28;20079;-60
2023/12/05 06:40:26;;;;;;;27.08;23.42;;;;;;;3.58;100.00;99856.31;5046845;28;20128;-60
2023/12/05 06:42:52;;;;;;;26.88;23.40;;;;;;;3.58;100.00;99859.81;5048314;28;20493;-59
2023/12/05 06:45:17;;;;;;;27.90;23.88;;;;;;;3.59;100.00;99866.72;5048824;28;20159;-61
2023/12/05 06:47:42;;;;;;;26.38;23.45;;;;;;;3.60;100.00;99871.06;5048607;28;20092;-60
2023/12/05 06:50:16;;;;;;;28.38;24.65;;;;;;;3.61;100.00;99864.00;5045670;28;20378;-61
2023/12/05 06:52:41;;;;;;;30.02;24.92;;;;;;;3.61;100.00;99867.47;5039499;28;20305;-60
2023/12/05 06:55:08;;;;;;;28.45;23.98;;;;;;;3.62;100.00;99874.41;5039308;28;20055;-60
2023/12/05 06:57:33;;;;;;;29.67;24.85;;;;;;;3.63;100.00;99875.25;5042729;28;20047;-60
2023/12/05 06:59:58;;;;;;;29.95;25.17;;;;;;;3.65;100.00;99876.03;5043454;28;20407;-59
2023/12/05 07:02:24;;;;;;;31.50;25.92;;;;;;;3.66;100.00;99877.69;5046754;28;20033;-61
2023/12/05 07:04:49;;;;;;;29.63;25.98;;;;;;;3.66;100.00;99882.94;5046656;28;20032;-60
2023/12/05 07:07:16;;;;;;;29.92;25.25;;;;;;;3.66;100.00;99883.81;5041370;28;20041;-61
2023/12/05 07:09:41;;;;;;;31.70;24.27;;;;;;;3.66;100.00;99881.19;5048881;28;20119;-60
2023/12/05 07:12:06;;;;;;;30.13;25.38;;;;;;;3.67;100.00;99888.09;5043584;28;20030;-61
2023/12/05 07:14:35;;;;;;;31.35;26.73;;;;;;;3.65;100.00;99894.41;5044558;28;20029;-61
2023/12/05 07:17:02;;;;;;;29.77;25.48;;;;;;;3.64;100.00;99900.59;5049068;28;20040;-61
2023/12/05 07:19:27;;;;;;;30.40;25.92;;;;;;;3.61;100.00;99900.78;5045549;28;20098;-61
2023/12/05 07:21:52;;;;;;;28.98;25.48;;;;;;;3.58;100.00;99900.97;5046715;28;20037;-60
2023/12/05 07:24:17;;;;;;;32.30;25.95;;;;;;;3.54;100.00;99905.56;5044439;28;20114;-61
2023/12/05 07:26:43;;;;;;;33.30;26.40;;;;;;;3.50;100.00;99914.59;5046662;28;20044;-60
2023/12/05 07:29:09;;;;;;;32.85;26.75;;;;;;;3.44;100.00;99912.31;5039687;28;20114;-60
2023/12/05 07:31:35;;;;;;;32.85;26.48;;;;;;;3.39;100.00;99912.59;5046309;28;20135;-60
2023/12/05 07:34:00;;;;;;;32.88;26.60;;;;;;;3.36;100.00;99917.22;5042084;28;20022;-60
2023/12/05 07:36:25;;;;;;;32.05;26.17;;;;;;;3.30;100.00;99919.28;5044691;28;20104;-60
2023/12/05 07:38:50;;;;;;;35.63;28.35;;;;;;;3.26;100.00;99917.75;5044757;28;20481;-61
2023/12/05 07:41:17;;;;;;;34.95;27.67;;;;;;;3.22;100.00;99925.94;5049081;28;20382;-60
2023/12/05 07:43:43;;;;;;;35.05;27.67;;;;;;;3.18;100.00;99933.16;5043870;28;20053;-60
2023/12/05 07:46:08;;;;;;;34.08;28.08;;;;;;;3.14;100.00;99939.50;5049664;28;20478;-60
2023/12/05 07:48:33;;;;;;;35.97;28.25;;;;;;;3.11;100.00;99945.81;5046694;28;20056;-61
2023/12/05 07:50:58;;;;;;;33.97;27.58;;;;;;;3.08;100.00;99953.84;5045078;28;20025;-60
2023/12/05 07:53:24;;;;;;;36.80;28.45;;;;;;;3.05;100.00;99956.66;5047402;28;20082;-61
2023/12/05 07:55:49;;;;;;;34.65;28.23;;;;;;;3.03;100.00;99963.78;5045432;28;20035;-59
2023/12/05 07:58:14;;;;;;;38.00;28.85;;;;;;;3.01;100.00;99967.41;5045511;28;20088;-60
2023/12/05 08:00:39;;;;;;;37.55;29.38;;;;;;;2.99;100.00;99962.25;5044393;28;20025;-60
2023/12/05 08:03:05;;;;;;;38.35;27.75;;;;;;;2.96;100.00;99971.16;5041861;28;20025;-60
2023/12/05 08:05:31;;;;;;;37.97;28.90;;;;;;;2.94;100.00;99972.19;5046977;28;20092;-60
2023/12/05 08:07:57;;;;;;;36.60;27.83;;;;;;;2.92;100.00;99979.28;5039161;28;20029;-60
2023/12/05 08:10:23;;;;;;;38.00;29.60;;;;;;;2.91;100.00;99974.97;5049798;28;20422;-60
2023/12/05 08:12:48;;;;;;;40.15;29.70;;;;;;;2.89;100.00;99982.09;5042181;28;20556;-60
2023/12/05 08:15:13;;;;;;;36.47;28.90;;;;;;;2.87;100.00;99991.84;5045674;28;20037;-60
2023/12/05 08:17:38;;;;;;;43.28;30.30;;;;;;;2.85;100.00;99986.69;5046886;28;20549;-61
2023/12/05 08:20:05;;;;;;;39.17;28.80;;;;;;;2.85;100.00;99993.69;5041282;28;20029;-60
2023/12/05 08:22:30;;;;;;;39.70;29.33;;;;;;;2.82;100.00;99992.09;5043333;28;20029;-60
2023/12/05 08:24:55;;;;;;;41.47;29.23;;;;;;;2.80;100.00;99995.72;5044123;28;20121;-59
2023/12/05 08:27:21;;;;;;;43.05;29.58;;;;;;;2.77;100.00;100004.63;5045867;28;20474;-60
2023/12/05 08:29:46;;;;;;;37.97;28.40;;;;;;;2.76;100.00;100006.41;5044247;28;20032;-60
2023/12/05 08:32:11;;;;;;;40.10;28.70;;;;;;;2.75;100.00;100012.59;5046711;28;20080;-60
2023/12/05 08:34:37;;;;;;;39.15;28.67;;;;;;;2.73;100.00;100014.47;5046126;28;20048;-60
2023/12/05 08:37:02;;;;;;;40.85;29.83;;;;;;;2.72;100.00;100020.63;5045100;28;20489;-60
2023/12/05 08:39:28;;;;;;;40.85;29.10;;;;;;;2.71;100.00;100013.69;5040085;28;20538;-60
2023/12/05 08:41:53;;;;;;;44.67;30.55;;;;;;;2.70;100.00;100022.50;5040726;28;20067;-60
2023/12/05 08:44:21;;;;;;;42.80;30.65;;;;;;;2.70;100.00;100024.28;5043099;28;20061;-60
2023/12/05 08:46:46;;;;;;;44.78;29.95;;;;;;;2.69;100.00;100027.81;5045878;28;20463;-60
2023/12/05 08:49:13;;;;;;;43.13;29.65;;;;;;;2.67;100.00;100027.91;5042174;28;20036;-61
2023/12/05 08:51:38;;;;;;;43.97;31.17;;;;;;;2.66;100.00;100033.25;5045204;28;20123;-60
2023/12/05 08:54:04;;;;;;;44.47;31.23;;;;;;;2.64;100.00;100032.50;5044518;28;20362;-61
2023/12/05 08:56:29;;;;;;;45.70;30.80;;;;;;;2.63;100.00;100029.03;5041975;28;20041;-60
2023/12/05 08:58:54;;;;;;;42.78;29.65;;;;;;;2.63;100.00;100029.03;5041961;28;20045;-60
2023/12/05 09:01:23;;;;;;;44.53;30.60;;;;;;;2.62;100.00;100032.56;5037841;28;20018;-60
2023/12/05 09:03:48;;;;;;;45.57;32.03;;;;;;;2.62;100.00;100037.81;5045018;28;20083;-61
2023/12/05 09:06:13;;;;;;;44.00;30.73;;;;;;;2.64;100.00;100035.09;5049684;28;20740;-61
2023/12/05 09:08:39;;;;;;;43.08;30.58;;;;;;;2.62;100.00;100039.59;5049084;28;20484;-60
2023/12/05 09:11:04;;;;;;;48.22;30.70;;;;;;;2.62;100.00;100042.22;5049622;28;20028;-60
2023/12/05 09:13:29;;;;;;;43.63;30.50;;;;;;;2.62;100.00;100050.09;5044180;28;20032;-60
2023/12/05 09:15:55;;;;;;;43.45;31.38;;;;;;;2.60;100.00;100055.41;5046606;28;20025;-60
2023/12/05 09:18:20;;;;;;;49.88;30.63;;;;;;;2.59;100.00;100051.94;5049172;28;20024;-60
2023/12/05 09:20:45;;;;;;;47.75;30.85;;;;;;;2.61;100.00;100059.72;5049865;28;20036;-60
2023/12/05 09:23:11;;;;;;;45.95;30.73;;;;;;;2.61;100.00;100058.88;5051459;28;20391;-61
2023/12/05 09:25:36;;;;;;;42.33;30.50;;;;;;;2.63;100.00;100059.63;5051783;28;20044;-60
2023/12/05 09:28:02;;;;;;;45.92;30.27;;;;;;;2.64;100.00;100063.94;5050665;28;20033;-60
2023/12/05 09:30:28;;;;;;;45.20;30.30;;;;;;;2.64;100.00;100070.03;5049113;28;20032;-60
2023/12/05 09:32:53;;;;;;;45.33;30.08;;;;;;;2.64;100.00;100075.28;5041877;28;20025;-60
2023/12/05 09:35:18;;;;;;;47.80;29.42;;;;;;;2.66;100.00;100080.44;5049999;28;20039;-60
2023/12/05 09:37:44;;;;;;;43.90;28.63;;;;;;;2.66;100.00;100085.69;5049395;28;20025;-60
2023/12/05 09:40:09;;;;;;;44.90;29.83;;;;;;;2.67;100.00;100096.09;5046244;28;20033;-60
2023/12/05 09:42:35;;;;;;;45.08;29.90;;;;;;;2.67;100.00;100101.31;5047056;28;20512;-60
2023/12/05 09:45:03;;;;;;;40.58;28.95;;;;;;;2.66;100.00;100102.25;5053286;28;20120;-59
2023/12/05 09:47:30;;;;;;;;;;;;;;;2.72;100.00;100096.66;5052248;28;20025;-60
2023/12/05 09:49:56;;;;;;;42.25;27.67;;;;;;;2.68;100.00;100103.03;5051413;28;19916;-60
2023/12/05 09:52:21;;;;;;;43.88;26.73;;;;;;;2.66;100.00;100099.63;5054249;28;20029;-60
2023/12/05 09:54:48;;;;;;;39.80;27.67;;;;;;;2.67;100.00;100103.94;5051172;28;20036;-60
2023/12/05 09:57:14;;;;;;;43.80;28.75;;;;;;;2.69;100.00;100102.06;5051503;28;20114;-60
2023/12/05 09:59:40;;;;;;;45.17;28.65;;;;;;;2.69;100.00;100103.88;5050315;28;20501;-60
2023/12/05 10:02:07;;;;;;;46.78;27.75;;;;;;;2.70;100.00;100108.19;5051654;28;20037;-60
2023/12/05 10:04:43;;;;;;;45.83;27.83;;;;;;;2.72;100.00;100116.81;5050553;28;20040;-60
2023/12/05 10:07:12;;;;;;;43.03;28.95;;;;;;;2.70;100.00;100114.28;5051541;28;20032;-61
2023/12/05 10:09:40;;;;;;;47.78;28.73;;;;;;;2.71;100.00;100122.97;5052461;28;20033;-60
2023/12/05 10:12:07;;;;;;;47.83;27.90;;;;;;;2.73;100.00;100128.97;5049640;28;20037;-60
2023/12/05 10:14:33;;;;;;;42.95;29.13;;;;;;;2.73;100.00;100128.97;5050091;28;20033;-60
2023/12/05 10:16:59;;;;;;;48.38;31.83;;;;;;;2.73;100.00;100129.84;5052018;28;20021;-60
2023/12/05 10:19:25;;;;;;;45.17;30.15;;;;;;;2.74;100.00;100135.91;5052492;28;20532;-60
2023/12/05 10:21:51;;;;;;;52.78;32.50;;;;;;;2.72;100.00;100140.41;5046048;28;20083;-61
2023/12/05 10:24:17;;;;;;;53.97;33.72;;;;;;;2.73;100.00;100145.56;5050927;28;20033;-60
2023/12/05 10:26:46;;;;;;;48.75;32.08;;;;;;;2.75;100.00;100138.47;5052840;28;20021;-60
2023/12/05 10:29:12;;;;;;;;;;;;;;;2.83;100.00;100145.91;5051610;28;20021;-60
2023/12/05 10:31:37;;;;;;;44.60;29.88;;;;;;;2.78;100.00;100142.66;5045534;28;20370;-60
2023/12/05 10:34:07;;;;;;;46.25;29.33;;;;;;;2.75;100.00;100148.09;5044804;28;20367;-60
2023/12/05 10:36:32;;;;;;;;;;;;;;;2.82;100.00;100143.38;5048701;28;20082;-60
2023/12/05 10:38:57;;;;;;;46.33;30.02;;;;;;;2.75;100.00;100146.31;5051430;28;19913;-60
2023/12/05 10:41:24;;;;;;;44.17;29.45;;;;;;;2.75;100.00;100159.44;5048524;28;20486;-61
2023/12/05 10:43:50;;;;;;;43.40;29.05;;;;;;;2.73;100.00;100156.06;5045685;28;20033;-60
2023/12/05 10:46:16;;;;;;;42.75;27.98;;;;;;;2.74;100.00;100154.28;5046429;28;20032;-60
2023/12/05 10:48:42;;;;;;;37.70;25.58;;;;;;;2.76;100.00;100155.03;5050378;28;20035;-61
2023/12/05 10:51:08;;;;;;;38.53;26.40;;;;;;;2.76;100.00;100161.13;5051935;28;20426;-61
2023/12/05 10:53:37;;;;;;;36.90;25.98;;;;;;;2.78;100.00;100161.03;5046253;28;20028;-61
2023/12/05 10:56:16;;;;;;;37.25;25.33;;;;;;;2.80;100.00;100167.06;5051412;28;20029;-60
2023/12/05 10:58:42;;;;;;;32.42;22.65;;;;;;;2.80;100.00;100172.31;5051584;28;20486;-61
2023/12/05 11:01:12;;;;;;;33.60;22.70;;;;;;;2.79;100.00;100170.59;5047414;28;20025;-60
2023/12/05 11:03:38;;;;;;;32.83;22.83;;;;;;;2.81;100.00;100173.97;5049182;28;20025;-61
2023/12/05 11:06:05;;;;;;;31.25;22.63;;;;;;;2.83;100.00;100180.00;5050103;28;20481;-60
2023/12/05 11:08:33;;;;;;;29.70;21.40;;;;;;;2.87;100.00;100175.44;5048457;28;20016;-60
2023/12/05 11:11:00;;;;;;;29.35;20.15;;;;;;;2.86;100.00;100178.97;5045813;28;20029;-60